Time;durP1;ratioP1;P1;durP2;ratioP2;P2;SDS_P1;SDS_P2;PMS_P1;PMS_P2;Temp;Humidity;BMP_temperature;BMP_pressure;BME280_temperature;BME280_humidity;BME280_pressure;Samples;Min_cycle;Max_cycle;Signal;HPM_P1;HPM_P2
2022/08/21 00:02:20;;;;;;;4.53;2.60;;;15.40;99.90;;;;;;5090637;28;20075;-55
2022/08/21 00:04:46;;;;;;;6.28;2.50;;;15.40;99.90;;;;;;5090471;28;20585;-56
2022/08/21 00:07:12;;;;;;;3.67;2.10;;;15.40;99.90;;;;;;5090269;28;20510;-55
2022/08/21 00:09:39;;;;;;;7.10;2.50;;;15.30;99.90;;;;;;5090520;28;21126;-55
2022/08/21 00:12:05;;;;;;;5.03;2.72;;;15.30;99.90;;;;;;5088503;28;20058;-55
2022/08/21 00:14:31;;;;;;;4.43;2.33;;;15.20;99.90;;;;;;5090813;28;20048;-55
2022/08/21 00:16:57;;;;;;;6.80;3.17;;;15.20;99.90;;;;;;5090679;28;20049;-55
2022/08/21 00:19:24;;;;;;;7.82;2.50;;;15.20;99.90;;;;;;5090791;28;20120;-54
2022/08/21 00:21:51;;;;;;;4.35;2.80;;;15.10;99.90;;;;;;5084772;28;20044;-57
2022/08/21 00:24:18;;;;;;;5.97;3.15;;;15.00;99.90;;;;;;5083947;28;20374;-55
2022/08/21 00:26:44;;;;;;;6.40;3.80;;;15.00;99.90;;;;;;5090098;28;20105;-55
2022/08/21 00:29:10;;;;;;;6.13;2.70;;;14.90;99.90;;;;;;5090309;28;20051;-55
2022/08/21 00:31:37;;;;;;;4.72;2.70;;;14.90;99.90;;;;;;5090094;28;20051;-54
2022/08/21 00:34:03;;;;;;;3.35;2.58;;;14.90;99.90;;;;;;5090529;28;20130;-55
2022/08/21 00:36:29;;;;;;;4.20;2.92;;;15.00;99.90;;;;;;5089705;28;20097;-55
2022/08/21 00:38:55;;;;;;;7.13;2.92;;;14.90;99.90;;;;;;5089970;28;20569;-55
2022/08/21 00:41:22;;;;;;;4.57;2.95;;;14.90;99.90;;;;;;5088195;28;20309;-55
2022/08/21 00:43:49;;;;;;;3.85;2.90;;;14.90;99.90;;;;;;5090007;28;20318;-55
2022/08/21 00:46:15;;;;;;;3.30;2.35;;;14.90;99.90;;;;;;5089318;28;20052;-55
2022/08/21 00:48:41;;;;;;;5.82;2.90;;;14.80;99.90;;;;;;5090080;28;20131;-55
2022/08/21 00:51:22;;;;;;;4.38;2.22;;;14.80;99.90;;;;;;5089168;28;20127;-55
2022/08/21 00:53:51;;;;;;;3.65;1.80;;;14.80;99.90;;;;;;5090314;28;20040;-55
2022/08/21 00:56:18;;;;;;;3.95;1.88;;;14.80;99.90;;;;;;5089622;28;20048;-55
2022/08/21 00:58:45;;;;;;;4.45;2.20;;;14.70;99.90;;;;;;5089616;28;20378;-56
2022/08/21 01:01:11;;;;;;;5.28;2.83;;;14.70;99.90;;;;;;5088274;28;20075;-55
2022/08/21 01:03:38;;;;;;;4.80;2.50;;;14.70;99.90;;;;;;5089757;28;20059;-55
2022/08/21 01:06:05;;;;;;;4.13;2.42;;;14.60;99.90;;;;;;5089902;28;20044;-56
2022/08/21 01:08:32;;;;;;;3.65;2.72;;;14.60;99.90;;;;;;5080280;28;20052;-56
2022/08/21 01:10:59;;;;;;;6.75;2.80;;;14.60;99.90;;;;;;5088697;28;20062;-55
2022/08/21 01:13:26;;;;;;;5.07;2.88;;;14.60;99.90;;;;;;5089001;28;20056;-54
2022/08/21 01:15:54;;;;;;;3.60;2.40;;;14.60;99.90;;;;;;5090070;28;20044;-55
2022/08/21 01:18:21;;;;;;;4.15;2.53;;;14.60;99.90;;;;;;5089329;28;20060;-55
2022/08/21 01:21:20;;;;;;;7.18;2.78;;;14.60;99.90;;;;;;5088906;28;20489;-55
2022/08/21 01:23:52;;;;;;;4.32;2.60;;;14.60;99.90;;;;;;5072353;28;20048;-55
2022/08/21 01:26:22;;;;;;;5.40;2.70;;;14.50;99.90;;;;;;5089684;28;20079;-55
2022/08/21 01:29:00;;;;;;;5.20;2.33;;;14.60;99.90;;;;;;5088915;28;20043;-55
2022/08/21 01:31:28;;;;;;;4.45;3.20;;;14.50;99.90;;;;;;5089676;28;20464;-55
2022/08/21 01:33:55;;;;;;;5.95;2.90;;;14.40;99.90;;;;;;5087677;28;20233;-56
2022/08/21 01:36:22;;;;;;;5.53;2.63;;;14.50;99.90;;;;;;5090878;28;20052;-55
2022/08/21 01:38:47;;;;;;;5.00;2.50;;;14.40;99.90;;;;;;5078461;28;20080;-55
2022/08/21 01:41:14;;;;;;;6.30;3.00;;;14.50;99.90;;;;;;5086882;28;20075;-55
2022/08/21 01:43:41;;;;;;;6.13;3.03;;;14.50;99.90;;;;;;5075914;28;20048;-56
2022/08/21 01:46:07;;;;;;;6.53;2.72;;;14.40;99.90;;;;;;5087416;28;20055;-58
2022/08/21 01:48:33;;;;;;;5.95;3.08;;;14.40;99.90;;;;;;5088947;28;20048;-57
2022/08/21 01:50:59;;;;;;;5.50;2.55;;;13.90;99.90;;;;;;5088683;28;20044;-56
2022/08/21 01:53:24;;;;;;;11.60;3.38;;;14.30;99.90;;;;;;5086880;28;20453;-55
2022/08/21 01:55:50;;;;;;;7.05;2.78;;;14.30;99.90;;;;;;5087758;28;20453;-56
2022/08/21 01:58:16;;;;;;;3.97;2.72;;;14.30;99.90;;;;;;5088506;28;20383;-60
2022/08/21 02:00:42;;;;;;;6.20;2.40;;;14.30;99.90;;;;;;5088964;28;20044;-56
2022/08/21 02:03:07;;;;;;;3.80;2.05;;;14.30;99.90;;;;;;5088676;28;20062;-55
2022/08/21 02:05:33;;;;;;;4.05;1.75;;;14.20;99.90;;;;;;5088981;28;20113;-57
2022/08/21 02:07:59;;;;;;;5.80;2.42;;;14.20;99.90;;;;;;5088226;28;20113;-58
2022/08/21 02:10:31;;;;;;;1.95;1.83;;;13.80;99.90;;;;;;5088753;28;20082;-59
2022/08/21 02:12:59;;;;;;;2.75;1.48;;;14.20;99.90;;;;;;5088426;28;20052;-57
2022/08/21 02:15:25;;;;;;;1.55;1.45;;;14.10;99.90;;;;;;5088764;28;20049;-56
2022/08/21 02:17:57;;;;;;;2.15;1.58;;;14.00;99.90;;;;;;5088695;28;20055;-55
2022/08/21 02:20:38;;;;;;;4.50;2.30;;;14.00;99.90;;;;;;5088613;28;20032;-55
2022/08/21 02:23:05;;;;;;;3.75;2.78;;;13.90;99.90;;;;;;5079754;28;20043;-59
2022/08/21 02:25:31;;;;;;;4.10;2.50;;;13.90;99.90;;;;;;5088716;28;20082;-55
2022/08/21 02:27:58;;;;;;;4.05;2.88;;;13.90;99.90;;;;;;5088967;28;20044;-56
2022/08/21 02:30:29;;;;;;;3.60;2.30;;;13.80;99.90;;;;;;5088431;28;20545;-55
2022/08/21 02:32:56;;;;;;;3.97;2.22;;;13.80;99.90;;;;;;5088502;28;20383;-56
2022/08/21 02:35:23;;;;;;;3.65;2.70;;;13.80;99.90;;;;;;5088592;28;20048;-55
2022/08/21 02:37:54;;;;;;;4.18;2.40;;;13.70;99.90;;;;;;5085961;28;20539;-55
2022/08/21 02:40:25;;;;;;;3.42;1.95;;;13.70;99.90;;;;;;5088738;28;20052;-55
2022/08/21 02:42:50;;;;;;;3.53;2.70;;;13.70;99.90;;;;;;5087992;28;20153;-56
2022/08/21 02:45:18;;;;;;;4.20;1.85;;;13.70;99.90;;;;;;5070469;28;20549;-55
2022/08/21 02:47:49;;;;;;;2.05;1.80;;;13.70;99.90;;;;;;5088079;28;20035;-54
2022/08/21 02:50:19;;;;;;;3.45;2.03;;;13.60;99.90;;;;;;5088547;28;20044;-55
2022/08/21 02:52:45;;;;;;;3.13;1.58;;;13.60;99.90;;;;;;5088008;28;20456;-55
2022/08/21 02:55:10;;;;;;;3.25;1.83;;;13.60;99.90;;;;;;5088190;28;20036;-55
2022/08/21 02:57:36;;;;;;;3.67;2.13;;;13.60;99.90;;;;;;5088217;28;20051;-54
2022/08/21 03:00:05;;;;;;;2.60;1.70;;;13.50;99.90;;;;;;5088451;28;20080;-56
2022/08/21 03:02:31;;;;;;;7.28;2.17;;;13.50;99.90;;;;;;5086540;28;20052;-57
2022/08/21 03:04:56;;;;;;;2.05;1.63;;;13.50;99.90;;;;;;5086715;28;20054;-58
2022/08/21 03:07:22;;;;;;;2.28;1.70;;;13.50;99.90;;;;;;5087555;28;20545;-59
2022/08/21 03:09:48;;;;;;;3.78;1.90;;;13.40;99.90;;;;;;5086904;28;20040;-57
2022/08/21 03:12:14;;;;;;;2.17;1.98;;;13.50;99.90;;;;;;5084740;28;20489;-57
2022/08/21 03:14:40;;;;;;;2.78;2.10;;;13.50;99.90;;;;;;5092261;28;20048;-59
2022/08/21 03:17:06;;;;;;;2.92;1.50;;;13.40;99.90;;;;;;5091819;28;20055;-58
2022/08/21 03:19:32;;;;;;;2.90;2.03;;;13.40;99.90;;;;;;5090587;28;20040;-57
2022/08/21 03:21:58;;;;;;;2.67;2.05;;;13.30;99.90;;;;;;5090453;28;20056;-58
2022/08/21 03:24:24;;;;;;;3.13;2.25;;;13.30;99.90;;;;;;5091819;28;20044;-55
2022/08/21 03:26:50;;;;;;;3.15;1.80;;;13.20;99.90;;;;;;5091683;28;20122;-55
2022/08/21 03:29:15;;;;;;;2.58;1.77;;;13.20;99.90;;;;;;5091837;28;20109;-57
2022/08/21 03:31:41;;;;;;;4.78;2.38;;;13.20;99.90;;;;;;5091201;28;20055;-55
2022/08/21 03:34:07;;;;;;;5.20;2.75;;;13.20;99.90;;;;;;5091810;28;20101;-55
2022/08/21 03:36:32;;;;;;;5.93;2.80;;;13.20;99.90;;;;;;5090312;28;20043;-56
2022/08/21 03:38:58;;;;;;;6.10;2.97;;;13.20;99.90;;;;;;5091547;28;20390;-58
2022/08/21 03:41:24;;;;;;;3.50;2.85;;;13.20;99.90;;;;;;5087180;28;20052;-54
2022/08/21 03:43:50;;;;;;;6.20;2.50;;;13.20;99.90;;;;;;5068001;28;20048;-57
2022/08/21 03:46:15;;;;;;;5.82;2.95;;;13.20;99.90;;;;;;5087365;28;20091;-55
2022/08/21 03:48:41;;;;;;;2.83;2.25;;;13.20;99.90;;;;;;5087854;28;20044;-58
2022/08/21 03:51:07;;;;;;;2.65;2.45;;;13.10;99.90;;;;;;5090753;28;20040;-56
2022/08/21 03:53:34;;;;;;;5.93;2.70;;;13.10;99.90;;;;;;5079116;28;20123;-55
2022/08/21 03:56:00;;;;;;;3.17;1.88;;;13.00;99.90;;;;;;5091054;28;20087;-56
2022/08/21 03:58:27;;;;;;;2.25;2.05;;;13.00;99.90;;;;;;5091300;28;20086;-55
2022/08/21 04:00:57;;;;;;;3.15;2.40;;;13.00;99.90;;;;;;5090600;28;20050;-55
2022/08/21 04:03:23;;;;;;;3.22;2.22;;;13.00;99.90;;;;;;5091298;28;20040;-55
2022/08/21 04:05:49;;;;;;;3.22;2.00;;;13.00;99.90;;;;;;5091061;28;20470;-54
2022/08/21 04:08:19;;;;;;;5.93;2.55;;;12.90;99.90;;;;;;5089613;28;20094;-55
2022/08/21 04:10:49;;;;;;;3.30;2.42;;;12.90;99.90;;;;;;5079376;28;20059;-56
2022/08/21 04:13:15;;;;;;;2.65;2.42;;;12.80;99.90;;;;;;5089727;28;20050;-56
2022/08/21 04:15:41;;;;;;;2.83;2.45;;;12.80;99.90;;;;;;5089966;28;20051;-55
2022/08/21 04:18:08;;;;;;;5.25;2.42;;;12.80;99.90;;;;;;5090382;28;20130;-58
2022/08/21 04:20:34;;;;;;;4.55;2.05;;;12.80;99.90;;;;;;5090752;28;20044;-58
2022/08/21 04:23:00;;;;;;;3.25;2.13;;;12.80;99.90;;;;;;5073684;28;20097;-59
2022/08/21 04:25:26;;;;;;;4.03;2.70;;;12.70;99.90;;;;;;5090183;28;20036;-58
2022/08/21 04:27:53;;;;;;;3.45;2.50;;;12.70;99.90;;;;;;5090686;28;20555;-59
2022/08/21 04:30:19;;;;;;;3.42;2.72;;;12.70;99.90;;;;;;5089697;28;20442;-60
2022/08/21 04:32:48;;;;;;;5.47;3.15;;;12.70;99.90;;;;;;5090355;28;20097;-59
2022/08/21 04:35:16;;;;;;;2.92;2.42;;;12.70;99.90;;;;;;5090201;28;20105;-55
2022/08/21 04:37:41;;;;;;;3.38;3.03;;;12.70;99.90;;;;;;5089162;28;20054;-56
2022/08/21 04:40:09;;;;;;;5.05;2.72;;;12.70;99.90;;;;;;5090275;28;20389;-56
2022/08/21 04:42:44;;;;;;;2.75;2.53;;;12.70;99.90;;;;;;5089828;28;20051;-56
2022/08/21 04:45:20;;;;;;;8.13;3.25;;;12.70;99.90;;;;;;5074273;28;20036;-55
2022/08/21 04:47:51;;;;;;;4.05;3.22;;;12.70;99.90;;;;;;5089683;28;20510;-56
2022/08/21 04:50:17;;;;;;;3.97;2.67;;;12.80;99.90;;;;;;5089749;28;20052;-55
2022/08/21 04:52:43;;;;;;;5.50;3.63;;;12.80;99.90;;;;;;5086925;28;20051;-55
2022/08/21 04:55:10;;;;;;;7.57;4.05;;;12.90;99.90;;;;;;5090014;28;20048;-55
2022/08/21 04:57:37;;;;;;;4.72;3.95;;;12.80;99.90;;;;;;5089788;28;20055;-55
2022/08/21 05:00:06;;;;;;;9.00;4.10;;;12.90;99.90;;;;;;5088872;28;20131;-55
2022/08/21 05:02:32;;;;;;;6.40;4.50;;;12.90;99.90;;;;;;5089476;28;20063;-55
2022/08/21 05:04:59;;;;;;;6.35;3.75;;;13.00;99.90;;;;;;5089365;28;20040;-55
2022/08/21 05:07:29;;;;;;;4.65;3.83;;;12.90;99.90;;;;;;5089461;28;20091;-55
2022/08/21 05:09:55;;;;;;;7.55;3.85;;;13.00;99.90;;;;;;5084361;28;20040;-55
2022/08/21 05:12:22;;;;;;;6.85;4.38;;;13.00;99.90;;;;;;5083503;28;20067;-56
2022/08/21 05:14:47;;;;;;;5.65;4.18;;;13.10;99.90;;;;;;5089454;28;20131;-55
2022/08/21 05:17:13;;;;;;;5.13;4.25;;;13.20;99.90;;;;;;5089252;28;20123;-56
2022/08/21 05:19:39;;;;;;;10.57;5.15;;;13.30;99.90;;;;;;5089334;28;20070;-55
2022/08/21 05:22:05;;;;;;;9.48;4.35;;;13.40;99.90;;;;;;5081278;28;20048;-55
2022/08/21 05:24:32;;;;;;;9.57;4.78;;;13.50;99.90;;;;;;5089664;28;20270;-58
2022/08/21 05:26:58;;;;;;;10.52;5.13;;;13.60;99.90;;;;;;5088993;28;20159;-56
2022/08/21 05:29:24;;;;;;;8.07;5.75;;;13.70;99.90;;;;;;5089237;28;20127;-57
2022/08/21 05:31:50;;;;;;;9.77;5.03;;;13.90;99.90;;;;;;5088673;28;20051;-55
2022/08/21 05:34:21;;;;;;;8.02;4.88;;;14.00;99.90;;;;;;5088943;28;20083;-59
2022/08/21 05:36:47;;;;;;;7.50;5.35;;;14.10;99.90;;;;;;5088554;28;20044;-56
2022/08/21 05:39:14;;;;;;;7.93;5.43;;;14.20;99.90;;;;;;5087302;28;20031;-58
2022/08/21 05:41:39;;;;;;;9.35;4.57;;;14.30;99.90;;;;;;5082551;28;20066;-61
2022/08/21 05:44:05;;;;;;;8.45;5.15;;;14.50;99.90;;;;;;5087753;28;20486;-60
2022/08/21 05:46:31;;;;;;;6.93;4.38;;;14.60;99.90;;;;;;5088752;28;20047;-55
2022/08/21 05:48:56;;;;;;;8.48;4.60;;;14.70;99.90;;;;;;5088807;28;20134;-56
2022/08/21 05:51:22;;;;;;;7.13;5.13;;;14.80;99.90;;;;;;5075800;28;20087;-56
2022/08/21 05:53:47;;;;;;;6.38;4.95;;;15.00;99.90;;;;;;5082477;28;20048;-55
2022/08/21 05:56:14;;;;;;;7.57;4.85;;;15.10;99.90;;;;;;5078555;28;20085;-55
2022/08/21 05:58:39;;;;;;;10.00;4.80;;;15.30;99.90;;;;;;5085058;28;20493;-57
2022/08/21 06:01:06;;;;;;;8.48;4.20;;;15.50;99.90;;;;;;5080745;28;20048;-56
2022/08/21 06:03:35;;;;;;;7.28;4.30;;;15.50;99.90;;;;;;5084243;28;20095;-56
2022/08/21 06:06:01;;;;;;;5.30;3.63;;;15.80;99.90;;;;;;5080473;28;20054;-56
2022/08/21 06:08:27;;;;;;;11.85;5.03;;;15.90;99.90;;;;;;5077417;28;20452;-58
2022/08/21 06:10:55;;;;;;;8.90;4.20;;;16.10;99.90;;;;;;5076087;28;20098;-56
2022/08/21 06:13:22;;;;;;;10.70;3.65;;;16.30;99.90;;;;;;5088664;28;20051;-58
2022/08/21 06:15:48;;;;;;;6.80;4.50;;;16.50;99.90;;;;;;5087780;28;20052;-58
2022/08/21 06:18:14;;;;;;;9.50;4.28;;;16.70;99.90;;;;;;5079018;28;20041;-56
2022/08/21 06:20:41;;;;;;;7.28;4.57;;;16.90;99.90;;;;;;5067021;28;20052;-57
2022/08/21 06:23:08;;;;;;;10.88;4.57;;;17.10;99.90;;;;;;5086215;28;20075;-55
2022/08/21 06:25:34;;;;;;;7.82;4.40;;;17.30;99.90;;;;;;5088640;28;20051;-55
2022/08/21 06:28:06;;;;;;;8.02;5.10;;;17.40;99.90;;;;;;5086455;28;20500;-56
2022/08/21 06:30:32;;;;;;;7.95;4.03;;;17.60;99.90;;;;;;5075991;28;20417;-56
2022/08/21 06:32:58;;;;;;;6.03;3.65;;;17.80;99.90;;;;;;5079321;28;20495;-56
2022/08/21 06:35:28;;;;;;;6.25;3.58;;;18.00;99.90;;;;;;5082778;28;20079;-57
2022/08/21 06:37:55;;;;;;;8.10;3.72;;;18.20;99.90;;;;;;5076721;28;20059;-55
2022/08/21 06:40:21;;;;;;;7.30;3.55;;;18.20;99.90;;;;;;5078045;28;20115;-55
2022/08/21 06:42:46;;;;;;;8.48;3.83;;;18.50;99.90;;;;;;5077817;28;20110;-56
2022/08/21 06:45:12;;;;;;;7.38;3.85;;;18.50;99.90;;;;;;5084755;28;20036;-58
2022/08/21 06:47:38;;;;;;;7.70;3.20;;;18.70;99.90;;;;;;5081923;28;20047;-57
2022/08/21 06:50:07;;;;;;;7.55;3.97;;;18.90;99.90;;;;;;5081029;28;20149;-59
2022/08/21 06:52:34;;;;;;;8.13;3.67;;;19.10;99.90;;;;;;5080768;28;20045;-56
2022/08/21 06:54:59;;;;;;;8.98;3.55;;;19.30;99.90;;;;;;5083709;28;20040;-59
2022/08/21 06:57:26;;;;;;;7.38;3.30;;;19.40;99.90;;;;;;5077358;28;20126;-58
2022/08/21 06:59:51;;;;;;;9.13;2.95;;;19.50;99.90;;;;;;5083591;28;20044;-59
2022/08/21 07:02:17;;;;;;;8.48;2.90;;;19.50;99.90;;;;;;5081338;28;20047;-61
2022/08/21 07:04:43;;;;;;;6.20;3.67;;;19.70;99.90;;;;;;5082468;28;20054;-58
2022/08/21 07:07:09;;;;;;;7.25;3.42;;;19.90;99.90;;;;;;5082777;28;20044;-55
2022/08/21 07:09:35;;;;;;;9.60;3.00;;;20.00;99.90;;;;;;5081188;28;20047;-56
2022/08/21 07:12:01;;;;;;;8.38;3.20;;;20.30;99.90;;;;;;5078008;28;20586;-58
2022/08/21 07:14:27;;;;;;;5.53;2.17;;;20.40;99.90;;;;;;5072278;28;20143;-57
2022/08/21 07:16:53;;;;;;;6.15;2.90;;;20.70;99.90;;;;;;5079947;28;20055;-55
2022/08/21 07:19:19;;;;;;;3.38;1.98;;;20.80;99.90;;;;;;5076506;28;20109;-56
2022/08/21 07:21:44;;;;;;;7.65;2.15;;;20.70;99.90;;;;;;5079847;28;20040;-55
2022/08/21 07:24:10;;;;;;;6.55;3.05;;;20.90;99.90;;;;;;5075337;28;20458;-55
2022/08/21 07:26:36;;;;;;;5.55;2.65;;;21.10;99.90;;;;;;5078078;28;20062;-55
2022/08/21 07:29:03;;;;;;;5.05;2.13;;;21.00;99.90;;;;;;5077520;28;20488;-56
2022/08/21 07:31:28;;;;;;;6.72;2.60;;;21.10;99.90;;;;;;5072245;28;20445;-56
2022/08/21 07:33:54;;;;;;;8.13;2.83;;;21.00;99.90;;;;;;5074805;28;20033;-57
2022/08/21 07:36:20;;;;;;;3.83;1.80;;;21.40;99.90;;;;;;5084651;28;20045;-56
2022/08/21 07:38:46;;;;;;;5.90;1.95;;;21.20;99.90;;;;;;5075107;28;20110;-57
2022/08/21 07:41:18;;;;;;;4.35;2.28;;;21.30;99.90;;;;;;5078800;28;20052;-57
2022/08/21 07:43:44;;;;;;;6.47;2.13;;;21.60;99.90;;;;;;5069664;28;20121;-56
2022/08/21 07:46:11;;;;;;;4.68;2.00;;;21.70;99.90;;;;;;5078000;28;20055;-57
2022/08/21 07:48:37;;;;;;;5.63;1.88;;;21.70;99.90;;;;;;5070983;28;20055;-57
2022/08/21 07:51:07;;;;;;;9.80;2.28;;;21.90;99.90;;;;;;5073895;28;20063;-56
2022/08/21 07:53:33;;;;;;;8.00;2.00;;;22.10;99.90;;;;;;5071519;28;20040;-56
2022/08/21 07:55:59;;;;;;;3.88;1.70;;;22.30;99.90;;;;;;5073187;28;20062;-57
2022/08/21 07:58:24;;;;;;;5.75;2.20;;;22.30;99.90;;;;;;5068856;28;20052;-55
2022/08/21 08:00:50;;;;;;;3.95;1.85;;;22.40;99.90;;;;;;5072735;28;20123;-56
2022/08/21 08:03:16;;;;;;;7.70;2.22;;;22.60;99.90;;;;;;5070231;28;20054;-57
2022/08/21 08:05:42;;;;;;;5.28;1.40;;;22.90;99.90;;;;;;5070062;28;20051;-58
2022/08/21 08:08:08;;;;;;;8.23;3.00;;;23.40;99.90;;;;;;5073408;28;20048;-56
2022/08/21 08:10:35;;;;;;;10.65;2.75;;;22.60;99.90;;;;;;5072626;28;20052;-56
2022/08/21 08:13:01;;;;;;;6.50;1.92;;;23.70;99.90;;;;;;5080600;28;20558;-56
2022/08/21 08:15:27;;;;;;;6.20;1.95;;;23.70;99.90;;;;;;5083239;28;20048;-56
2022/08/21 08:17:54;;;;;;;9.10;1.90;;;24.00;99.90;;;;;;5079296;28;20055;-56
2022/08/21 08:20:22;;;;;;;13.65;3.03;;;24.10;99.90;;;;;;5069071;28;20128;-56
2022/08/21 08:22:49;;;;;;;7.65;2.00;;;25.00;99.90;;;;;;5074402;28;20052;-57
2022/08/21 08:25:16;;;;;;;6.25;1.67;;;25.30;99.90;;;;;;5073421;28;20052;-55
2022/08/21 08:27:42;;;;;;;5.30;1.52;;;25.50;99.90;;;;;;5071536;28;20074;-59
2022/08/21 08:30:10;;;;;;;8.20;1.90;;;25.70;99.90;;;;;;5078771;28;20063;-57
2022/08/21 08:32:37;;;;;;;5.93;1.75;;;25.70;99.90;;;;;;5077345;28;20102;-57
2022/08/21 08:35:04;;;;;;;8.48;2.83;;;26.00;99.90;;;;;;5080819;28;20114;-55
2022/08/21 08:37:29;;;;;;;6.13;1.70;;;25.40;99.90;;;;;;5077402;28;20058;-56
2022/08/21 08:39:55;;;;;;;7.80;1.95;;;25.20;99.90;;;;;;5075461;28;20048;-60
2022/08/21 08:42:29;;;;;;;6.10;2.10;;;25.10;99.90;;;;;;5075102;28;20052;-56
2022/08/21 08:45:00;;;;;;;;;;;25.10;99.90;;;;;;5080376;28;20099;-56
2022/08/21 08:47:28;;;;;;;4.10;1.83;;;25.20;99.90;;;;;;5087817;28;20289;-57
2022/08/21 08:50:09;;;;;;;11.02;2.13;;;25.50;99.90;;;;;;5086500;28;20052;-55
2022/08/21 08:52:49;;;;;;;5.97;1.77;;;25.50;99.90;;;;;;5087910;28;20070;-57
2022/08/21 08:55:32;;;;;;;6.25;1.85;;;25.50;99.90;;;;;;5074045;28;20063;-57
2022/08/21 08:57:58;;;;;;;6.70;1.47;;;25.90;99.90;;;;;;5080585;28;20610;-57
2022/08/21 09:00:24;;;;;;;6.97;1.60;;;26.30;99.90;;;;;;5087510;28;20126;-57
2022/08/21 09:02:54;;;;;;;2.53;1.00;;;25.80;99.90;;;;;;5082952;28;20547;-57
2022/08/21 09:05:52;;;;;;;2.83;1.42;;;26.20;99.90;;;;;;5084066;28;20043;-57
2022/08/21 09:08:44;;;;;;;6.32;1.20;;;26.80;99.00;;;;;;5073610;28;20052;-58
2022/08/21 09:11:19;;;;;;;4.18;1.30;;;26.50;99.00;;;;;;5076325;28;20039;-58
2022/08/21 09:14:43;;;;;;;4.07;1.52;;;26.50;99.90;;;;;;5075613;28;20071;-57
2022/08/21 09:17:21;;;;;;;5.07;1.63;;;26.60;99.90;;;;;;4975467;28;20092;-57
2022/08/21 09:19:55;;;;;;;2.75;1.30;;;25.60;99.10;;;;;;5076928;28;20044;-57
2022/08/21 09:22:48;;;;;;;2.97;1.60;;;26.50;99.90;;;;;;5087945;28;20052;-56
2022/08/21 09:25:30;;;;;;;5.35;1.63;;;26.30;98.00;;;;;;5070274;28;20044;-57
2022/08/21 09:27:56;;;;;;;8.40;2.00;;;26.60;99.20;;;;;;5087638;28;20044;-57
2022/08/21 09:30:31;;;;;;;6.22;1.95;;;26.00;99.80;;;;;;5082790;28;20074;-58
2022/08/21 09:32:57;;;;;;;4.90;1.40;;;26.60;97.60;;;;;;5087650;28;20067;-57
2022/08/21 09:35:24;;;;;;;3.45;1.55;;;26.20;99.60;;;;;;5089161;28;20497;-58
2022/08/21 09:37:56;;;;;;;5.72;1.17;;;26.60;99.70;;;;;;5087053;28;20052;-60
2022/08/21 09:40:31;;;;;;;1.70;0.73;;;26.60;99.10;;;;;;5087646;28;20060;-58
2022/08/21 09:43:01;;;;;;;4.65;1.50;;;26.70;99.10;;;;;;5086446;28;20710;-60
2022/08/21 09:45:28;;;;;;;4.50;1.38;;;27.40;99.20;;;;;;5073784;28;20051;-57
2022/08/21 09:47:54;;;;;;;4.82;2.00;;;27.40;99.40;;;;;;5087223;28;20466;-58
2022/08/21 09:50:26;;;;;;;6.53;1.65;;;27.30;97.60;;;;;;5087425;28;20454;-56
2022/08/21 09:52:56;;;;;;;3.22;1.15;;;27.10;98.20;;;;;;5087361;28;20052;-58
2022/08/21 09:58:37;;;;;;;5.47;2.25;;;27.10;99.20;;;;;;5079387;28;20394;-56
2022/08/21 10:01:05;;;;;;;5.18;1.63;;;27.90;99.20;;;;;;5068002;28;20052;-56
2022/08/21 10:03:30;;;;;;;4.50;1.42;;;27.20;98.20;;;;;;5084231;28;20383;-56
2022/08/21 10:06:09;;;;;;;5.20;2.03;;;27.30;99.80;;;;;;5069492;28;20074;-55
2022/08/21 10:08:38;;;;;;;3.45;1.55;;;27.80;99.10;;;;;;5068712;28;20040;-56
2022/08/21 10:11:10;;;;;;;4.88;1.30;;;27.20;99.40;;;;;;5078552;28;20147;-56
2022/08/21 10:14:10;;;;;;;3.38;0.95;;;26.80;98.60;;;;;;5068495;28;20534;-57
2022/08/21 10:16:52;;;;;;;3.42;1.42;;;27.50;98.90;;;;;;5072229;28;20047;-56
2022/08/21 10:19:32;;;;;;;5.88;1.27;;;27.40;99.20;;;;;;5069282;28;20050;-56
2022/08/21 10:22:15;;;;;;;4.60;2.05;;;27.00;98.90;;;;;;5070549;28;20090;-56
2022/08/21 10:25:16;;;;;;;3.85;1.42;;;27.30;98.70;;;;;;5071427;28;20116;-55
2022/08/21 10:28:15;;;;;;;4.30;1.77;;;27.20;99.30;;;;;;5064181;28;20101;-57
2022/08/21 10:31:09;;;;;;;4.70;1.63;;;27.70;98.30;;;;;;5072575;28;20132;-55
2022/08/21 10:34:14;;;;;;;7.13;1.40;;;27.70;97.70;;;;;;5075865;28;20515;-55
2022/08/21 10:36:51;;;;;;;3.03;1.63;;;27.10;98.20;;;;;;5073165;28;20054;-56
2022/08/21 10:39:42;;;;;;;5.32;1.50;;;27.20;99.20;;;;;;5075819;28;20486;-56
2022/08/21 10:42:27;;;;;;;5.70;1.52;;;26.40;99.00;;;;;;5075911;28;20105;-58
2022/08/21 10:45:09;;;;;;;3.58;2.05;;;26.30;99.30;;;;;;5075779;28;20497;-57
2022/08/21 10:47:53;;;;;;;6.13;2.42;;;27.00;98.60;;;;;;5074498;28;20126;-56
2022/08/21 10:50:39;;;;;;;4.05;1.40;;;26.60;99.00;;;;;;5073163;28;20086;-56
2022/08/21 10:53:26;;;;;;;3.92;1.55;;;27.30;99.10;;;;;;5075489;28;20052;-56
2022/08/21 10:56:16;;;;;;;4.50;1.45;;;27.40;98.10;;;;;;5074584;28;20398;-56
2022/08/21 10:58:57;;;;;;;5.60;2.08;;;27.50;96.60;;;;;;5075745;28;20166;-56
2022/08/21 11:01:40;;;;;;;5.03;1.58;;;27.50;97.00;;;;;;5077071;28;20341;-56
2022/08/21 11:04:12;;;;;;;3.58;1.40;;;28.00;96.90;;;;;;5075395;28;20047;-57
2022/08/21 11:06:48;;;;;;;6.25;1.42;;;27.50;98.00;;;;;;5076012;28;20483;-56
2022/08/21 11:09:21;;;;;;;5.03;1.52;;;26.50;97.80;;;;;;5073940;28;20130;-57
2022/08/21 11:12:26;;;;;;;7.18;1.77;;;26.00;98.50;;;;;;5074463;28;20057;-55
2022/08/21 11:15:00;;;;;;;3.30;1.30;;;26.00;98.40;;;;;;5074189;28;20482;-59
2022/08/21 11:17:43;;;;;;;5.40;1.65;;;25.40;98.90;;;;;;5079098;28;20045;-57
2022/08/21 11:20:21;;;;;;;7.37;2.43;;;25.50;98.80;;;;;;5072297;28;20394;-56
2022/08/21 11:23:00;;;;;;;5.28;1.80;;;25.60;99.30;;;;;;5071198;28;20303;-57
2022/08/21 11:25:34;;;;;;;6.90;2.00;;;25.70;99.80;;;;;;5073474;28;20052;-57
2022/08/21 11:28:02;;;;;;;;;;;25.40;99.50;;;;;;5076327;28;20386;-56
2022/08/21 11:30:43;;;;;;;8.50;2.05;;;25.20;99.80;;;;;;5072080;28;20205;-58
2022/08/21 11:33:57;;;;;;;5.53;1.35;;;25.20;99.90;;;;;;5075461;28;20402;-56
2022/08/21 11:36:32;;;;;;;3.53;1.15;;;24.40;99.90;;;;;;4994172;28;20097;-57
2022/08/21 11:39:21;;;;;;;2.63;1.40;;;24.20;99.90;;;;;;4990234;28;20425;-56
2022/08/21 11:42:06;;;;;;;4.05;1.40;;;24.20;99.90;;;;;;5048967;28;20127;-55
2022/08/21 11:44:52;;;;;;;13.90;1.98;;;23.90;99.90;;;;;;5074043;28;20053;-56
2022/08/21 11:47:57;;;;;;;14.07;2.15;;;23.50;99.90;;;;;;5074476;28;20083;-56
2022/08/21 11:50:30;;;;;;;4.38;1.75;;;23.50;99.90;;;;;;5051986;28;20452;-56
2022/08/21 11:53:08;;;;;;;3.22;1.23;;;23.20;99.90;;;;;;5073907;28;20068;-56
2022/08/21 11:55:43;;;;;;;5.47;1.60;;;23.00;99.90;;;;;;5072803;28;20048;-56
2022/08/21 11:58:31;;;;;;;5.28;1.77;;;22.80;99.90;;;;;;5071401;28;20052;-58
2022/08/21 12:01:16;;;;;;;4.25;1.25;;;22.60;99.90;;;;;;5073950;28;20043;-58
2022/08/21 12:03:55;;;;;;;6.68;2.33;;;22.30;99.90;;;;;;5074416;28;20049;-56
2022/08/21 12:06:40;;;;;;;6.47;2.10;;;22.10;99.90;;;;;;5071543;28;20045;-60
2022/08/21 12:09:27;;;;;;;6.55;1.88;;;22.00;99.90;;;;;;5066948;28;20043;-57
2022/08/21 12:12:04;;;;;;;5.57;1.88;;;22.00;99.90;;;;;;5066949;28;20052;-55
2022/08/21 12:14:37;;;;;;;6.55;2.10;;;22.40;99.90;;;;;;5068942;28;20060;-56
2022/08/21 12:17:08;;;;;;;5.78;1.80;;;22.80;99.90;;;;;;5054897;28;20127;-57
2022/08/21 12:19:35;;;;;;;11.10;2.45;;;27.40;99.90;;;;;;5069711;28;20048;-57
2022/08/21 12:22:03;;;;;;;4.40;1.98;;;29.60;99.90;;;;;;5070287;28;20501;-58
2022/08/21 12:24:35;;;;;;;3.83;1.40;;;32.10;99.10;;;;;;5076417;28;20045;-57
2022/08/21 12:27:25;;;;;;;5.10;1.80;;;33.50;98.30;;;;;;5068408;28;20043;-60
2022/08/21 12:29:56;;;;;;;3.28;1.90;;;34.70;94.60;;;;;;5075340;28;20040;-56
2022/08/21 12:32:26;;;;;;;12.15;3.40;;;33.40;94.90;;;;;;5070642;28;20044;-59
2022/08/21 12:35:02;;;;;;;9.27;2.22;;;36.00;94.40;;;;;;5076086;28;20048;-58
2022/08/21 12:37:30;;;;;;;4.35;1.95;;;37.40;92.30;;;;;;5070238;28;20049;-56
2022/08/21 12:40:00;;;;;;;3.08;1.67;;;36.70;92.00;;;;;;5071098;28;20067;-56
2022/08/21 12:42:42;;;;;;;4.28;1.75;;;37.00;91.70;;;;;;5076622;28;20545;-57
2022/08/21 12:45:25;;;;;;;4.70;1.80;;;35.50;91.10;;;;;;5071988;28;20395;-56
2022/08/21 12:47:56;;;;;;;5.60;1.70;;;36.30;90.60;;;;;;5071716;28;20048;-56
2022/08/21 12:50:41;;;;;;;7.45;1.70;;;37.30;90.80;;;;;;5076742;28;20060;-56
2022/08/21 12:53:20;;;;;;;2.83;1.77;;;37.60;89.60;;;;;;5071772;28;20048;-56
2022/08/21 12:55:45;;;;;;;7.45;2.00;;;36.80;86.40;;;;;;5087880;28;20083;-56
2022/08/21 12:58:23;;;;;;;4.75;1.63;;;34.90;89.60;;;;;;5087901;28;20083;-56
2022/08/21 13:00:52;;;;;;;5.47;1.70;;;33.60;90.40;;;;;;5086840;28;20044;-56
2022/08/21 13:03:18;;;;;;;5.85;1.40;;;32.60;91.40;;;;;;5081726;28;20052;-55
2022/08/21 13:05:44;;;;;;;4.63;1.75;;;30.60;92.20;;;;;;5083147;28;20118;-56
2022/08/21 13:08:12;;;;;;;6.55;1.77;;;29.30;93.70;;;;;;5079987;28;20059;-56
2022/08/21 13:10:40;;;;;;;3.17;1.73;;;28.20;95.30;;;;;;5075738;28;20048;-55